createdAt,value
2022-10-03T00:00:02.275Z,73.00
2022-10-03T00:02:28.756Z,73.00
2022-10-03T00:04:55.220Z,73.10
2022-10-03T00:07:21.649Z,73.00
2022-10-03T00:09:48.095Z,73.00
2022-10-03T00:12:14.520Z,73.00
2022-10-03T00:14:40.969Z,73.00
2022-10-03T00:17:07.404Z,73.10
2022-10-03T00:19:33.836Z,73.10
2022-10-03T00:22:00.273Z,73.20
2022-10-03T00:24:26.690Z,73.20
2022-10-03T00:26:53.115Z,73.30
2022-10-03T00:29:19.545Z,73.30
2022-10-03T00:31:46.051Z,73.20
2022-10-03T00:34:12.510Z,73.30
2022-10-03T00:36:38.941Z,73.30
2022-10-03T00:39:05.380Z,73.30
2022-10-03T00:41:31.815Z,73.20
2022-10-03T00:43:58.249Z,73.90
2022-10-03T00:46:24.743Z,73.20
2022-10-03T00:48:51.213Z,73.20
2022-10-03T00:51:17.651Z,73.30
2022-10-03T00:53:44.091Z,73.30
2022-10-03T00:56:10.509Z,73.40
2022-10-03T00:58:36.939Z,73.40
2022-10-03T01:01:03.432Z,73.30
2022-10-03T01:03:29.897Z,73.30
2022-10-03T01:05:56.316Z,73.50
2022-10-03T01:08:22.741Z,73.40
2022-10-03T01:10:49.177Z,73.40
2022-10-03T01:13:16.632Z,73.40
2022-10-03T01:15:43.103Z,74.00
2022-10-03T01:18:09.595Z,73.30
2022-10-03T01:20:36.019Z,73.40
2022-10-03T01:23:02.460Z,73.40
2022-10-03T01:25:28.872Z,73.40
2022-10-03T01:27:55.353Z,73.60
2022-10-03T01:30:21.819Z,73.50
2022-10-03T01:32:48.249Z,73.60
2022-10-03T01:35:14.680Z,73.60
2022-10-03T01:37:41.100Z,73.60
2022-10-03T01:40:07.527Z,73.70
2022-10-03T01:42:33.944Z,73.80
2022-10-03T01:45:00.377Z,73.80
2022-10-03T01:47:26.800Z,73.90
2022-10-03T01:49:53.245Z,73.90
2022-10-03T01:52:19.689Z,73.80
2022-10-03T01:54:46.117Z,73.90
2022-10-03T01:57:12.540Z,73.90
2022-10-03T01:59:38.969Z,73.90
2022-10-03T02:02:05.441Z,74.00
2022-10-03T02:04:31.909Z,74.00
2022-10-03T02:06:58.343Z,74.00
2022-10-03T02:09:24.782Z,73.90
2022-10-03T02:11:51.216Z,73.90
2022-10-03T02:14:17.651Z,73.90
2022-10-03T02:16:44.105Z,73.90
2022-10-03T02:19:10.538Z,73.90
2022-10-03T02:21:37.173Z,73.90
2022-10-03T02:24:03.799Z,73.80
2022-10-03T02:26:30.223Z,73.90
2022-10-03T02:28:56.673Z,74.00
2022-10-03T02:31:23.150Z,74.00
2022-10-03T02:33:49.607Z,74.00
2022-10-03T02:36:16.042Z,74.00
2022-10-03T02:38:42.479Z,74.10
2022-10-03T02:41:08.895Z,74.10
2022-10-03T02:43:35.320Z,74.10
2022-10-03T02:46:01.794Z,74.20
2022-10-03T02:48:31.927Z,74.20
2022-10-03T02:50:58.969Z,74.20
2022-10-03T02:53:25.401Z,74.30
2022-10-03T02:55:51.834Z,74.30
2022-10-03T02:58:18.274Z,74.30
2022-10-03T03:00:44.795Z,74.40
2022-10-03T03:03:11.267Z,74.40
2022-10-03T03:05:37.701Z,74.40
2022-10-03T03:08:04.145Z,74.40
2022-10-03T03:10:30.582Z,74.30
2022-10-03T03:12:57.034Z,75.00
2022-10-03T03:15:23.455Z,74.40
2022-10-03T03:17:49.885Z,74.40
2022-10-03T03:20:16.306Z,74.30
2022-10-03T03:22:42.745Z,74.40
2022-10-03T03:25:09.177Z,75.00
2022-10-03T03:27:35.596Z,74.40
2022-10-03T03:30:02.027Z,74.40
2022-10-03T03:32:28.453Z,74.50
2022-10-03T03:34:54.883Z,74.50
2022-10-03T03:37:21.304Z,74.70
2022-10-03T03:39:47.749Z,74.70
2022-10-03T03:42:14.169Z,74.70
2022-10-03T03:44:40.649Z,74.70
2022-10-03T03:47:07.073Z,74.60
2022-10-03T03:49:33.519Z,74.60
2022-10-03T03:51:59.936Z,74.60
2022-10-03T03:54:26.364Z,74.70
2022-10-03T03:56:52.794Z,74.70
2022-10-03T03:59:19.243Z,74.70
2022-10-03T04:01:45.712Z,74.70
2022-10-03T04:04:12.139Z,74.70
2022-10-03T04:06:38.592Z,74.70
2022-10-03T04:09:05.029Z,74.80
2022-10-03T04:11:31.468Z,74.80
2022-10-03T04:13:57.911Z,74.80
2022-10-03T04:16:24.395Z,74.90
2022-10-03T04:18:50.844Z,74.90
2022-10-03T04:21:19.146Z,74.80
2022-10-03T04:23:45.711Z,74.80
2022-10-03T04:26:12.134Z,74.80
2022-10-03T04:28:38.563Z,74.80
2022-10-03T04:31:05.002Z,74.80
2022-10-03T04:33:31.440Z,74.90
2022-10-03T04:35:57.882Z,74.90
2022-10-03T04:38:24.320Z,74.90
2022-10-03T04:40:50.751Z,74.90
2022-10-03T04:43:17.180Z,74.90
2022-10-03T04:45:43.686Z,75.00
2022-10-03T04:48:10.165Z,74.90
2022-10-03T04:50:36.594Z,75.00
2022-10-03T04:53:03.039Z,75.00
2022-10-03T04:55:29.485Z,75.50
2022-10-03T04:57:55.913Z,74.90
2022-10-03T05:00:22.361Z,75.00
2022-10-03T05:02:48.783Z,75.00
2022-10-03T05:05:15.216Z,75.10
2022-10-03T05:07:41.657Z,75.10
2022-10-03T05:10:12.763Z,75.00
2022-10-03T05:12:39.851Z,75.10
2022-10-03T05:15:06.276Z,75.10
2022-10-03T05:17:32.730Z,75.20
2022-10-03T05:19:59.162Z,75.20
2022-10-03T05:22:25.595Z,75.20
2022-10-03T05:24:52.032Z,75.20
2022-10-03T05:27:18.482Z,75.20
2022-10-03T05:29:44.913Z,75.20
2022-10-03T05:32:11.361Z,75.20
2022-10-03T05:34:37.779Z,75.20
2022-10-03T05:37:04.227Z,75.20
2022-10-03T05:39:30.647Z,75.20
2022-10-03T05:42:21.049Z,75.20
2022-10-03T05:44:43.479Z,75.20
2022-10-03T05:47:09.908Z,75.20
2022-10-03T05:49:36.426Z,75.20
2022-10-03T05:52:02.843Z,75.20
2022-10-03T05:54:29.274Z,75.20
2022-10-03T05:56:55.699Z,75.20
2022-10-03T05:59:22.146Z,75.30
2022-10-03T06:01:48.646Z,75.20
2022-10-03T06:04:15.152Z,75.20
2022-10-03T06:06:41.588Z,75.20
2022-10-03T06:09:08.006Z,75.20
2022-10-03T06:11:34.436Z,75.20
2022-10-03T06:14:00.865Z,75.30
2022-10-03T06:16:27.368Z,75.30
2022-10-03T06:18:53.811Z,75.30
2022-10-03T06:21:20.266Z,75.20
2022-10-03T06:23:46.723Z,75.20
2022-10-03T06:26:13.186Z,75.20
2022-10-03T06:28:39.618Z,75.20
2022-10-03T06:31:06.094Z,75.20
2022-10-03T06:33:32.565Z,75.20
2022-10-03T06:35:59.004Z,75.20
2022-10-03T06:38:25.431Z,75.30
2022-10-03T06:40:51.852Z,75.30
2022-10-03T06:43:18.363Z,75.30
2022-10-03T06:45:44.849Z,75.30
2022-10-03T06:48:11.346Z,75.30
2022-10-03T06:50:37.802Z,75.30
2022-10-03T06:53:04.224Z,75.30
2022-10-03T06:55:30.668Z,75.30
2022-10-03T06:57:57.103Z,75.30
2022-10-03T07:00:23.534Z,75.20
2022-10-03T07:02:50.045Z,75.30
2022-10-03T07:05:16.590Z,75.40
2022-10-03T07:07:43.016Z,75.40
2022-10-03T07:10:09.459Z,75.50
2022-10-03T07:12:35.894Z,75.50
2022-10-03T07:15:02.309Z,75.50
2022-10-03T07:17:28.826Z,75.60
2022-10-03T07:19:55.273Z,75.60
2022-10-03T07:22:21.709Z,75.60
2022-10-03T07:24:48.145Z,75.50
2022-10-03T07:27:14.583Z,75.50
2022-10-03T07:29:41.022Z,75.60
2022-10-03T07:32:07.458Z,75.70
2022-10-03T07:34:33.888Z,75.60
2022-10-03T07:37:00.335Z,75.60
2022-10-03T07:39:26.760Z,75.60
2022-10-03T07:41:53.188Z,75.60
2022-10-03T07:44:19.628Z,75.60
2022-10-03T07:46:46.144Z,75.70
2022-10-03T07:49:17.629Z,75.80
2022-10-03T07:51:44.897Z,75.80
2022-10-03T07:54:11.349Z,75.90
2022-10-03T07:56:37.783Z,76.10
2022-10-03T07:59:04.223Z,76.10
2022-10-03T08:01:30.636Z,76.20
2022-10-03T08:03:57.131Z,76.20
2022-10-03T08:06:23.639Z,76.30
2022-10-03T08:08:50.078Z,76.30
2022-10-03T08:11:16.535Z,76.20
2022-10-03T08:13:42.964Z,76.30
2022-10-03T08:16:09.433Z,76.50
2022-10-03T08:18:35.884Z,76.40
2022-10-03T08:21:02.330Z,76.50
2022-10-03T08:23:28.752Z,76.50
2022-10-03T08:25:55.184Z,76.40
2022-10-03T08:28:21.683Z,76.50
2022-10-03T08:30:48.230Z,76.60
2022-10-03T08:33:14.697Z,76.70
2022-10-03T08:35:41.122Z,76.60
2022-10-03T08:38:07.557Z,76.60
2022-10-03T08:40:33.991Z,76.50
2022-10-03T08:43:00.424Z,76.60
2022-10-03T08:45:26.845Z,76.40
2022-10-03T08:47:53.275Z,76.30
2022-10-03T08:50:19.841Z,76.10
2022-10-03T08:52:46.305Z,75.90
2022-10-03T08:55:12.739Z,75.60
2022-10-03T08:57:39.177Z,75.50
2022-10-03T09:00:05.611Z,75.30
2022-10-03T09:02:32.157Z,75.30
2022-10-03T09:04:58.681Z,75.10
2022-10-03T09:07:25.590Z,74.90
2022-10-03T09:09:52.300Z,74.80
2022-10-03T09:12:18.745Z,74.40
2022-10-03T09:14:45.156Z,74.40
2022-10-03T09:17:11.600Z,74.30
2022-10-03T09:19:38.012Z,74.20
2022-10-03T09:22:04.466Z,74.00
2022-10-03T09:24:30.906Z,73.70
2022-10-03T09:26:57.339Z,73.50
2022-10-03T09:29:23.786Z,73.20
2022-10-03T09:31:50.287Z,73.00
2022-10-03T09:34:16.786Z,72.90
2022-10-03T09:36:43.195Z,72.30
2022-10-03T09:39:09.623Z,72.10
2022-10-03T09:41:36.031Z,72.00
2022-10-03T09:44:02.457Z,71.80
2022-10-03T09:46:28.956Z,71.50
2022-10-03T09:48:55.409Z,70.80
2022-10-03T09:51:21.861Z,70.70
2022-10-03T09:53:48.287Z,69.80
2022-10-03T09:56:14.735Z,69.50
2022-10-03T09:58:41.169Z,69.50
2022-10-03T10:01:07.649Z,69.30
2022-10-03T10:03:34.144Z,68.80
2022-10-03T10:06:00.585Z,68.50
2022-10-03T10:08:27.008Z,68.00
2022-10-03T10:10:53.453Z,68.00
2022-10-03T10:13:19.875Z,67.80
2022-10-03T10:15:46.358Z,66.90
2022-10-03T10:18:12.821Z,67.00
2022-10-03T10:20:39.235Z,66.80
2022-10-03T10:23:05.655Z,67.20
2022-10-03T10:25:32.079Z,66.00
2022-10-03T10:27:58.588Z,66.10
2022-10-03T10:30:25.052Z,65.20
2022-10-03T10:32:51.490Z,64.10
2022-10-03T10:35:17.902Z,63.90
2022-10-03T10:37:46.383Z,63.20
2022-10-03T10:40:12.972Z,62.80
2022-10-03T10:42:39.434Z,63.30
2022-10-03T10:45:05.866Z,63.60
2022-10-03T10:47:32.293Z,63.70
2022-10-03T10:49:58.722Z,63.60
2022-10-03T10:52:25.136Z,63.80
2022-10-03T10:54:51.576Z,64.00
2022-10-03T10:57:17.998Z,63.80
2022-10-03T10:59:44.429Z,63.50
2022-10-03T11:02:10.850Z,62.40
2022-10-03T11:04:37.319Z,62.60
2022-10-03T11:07:03.839Z,62.30
2022-10-03T11:09:30.284Z,60.80
2022-10-03T11:11:56.725Z,60.30
2022-10-03T11:14:23.153Z,60.80
2022-10-03T11:16:49.657Z,60.90
2022-10-03T11:19:16.118Z,60.10
2022-10-03T11:21:42.556Z,59.80
2022-10-03T11:24:08.993Z,59.80
2022-10-03T11:26:35.427Z,60.20
2022-10-03T11:29:01.865Z,60.00
2022-10-03T11:31:28.360Z,59.30
2022-10-03T11:33:54.818Z,59.20
2022-10-03T11:36:21.238Z,58.90
2022-10-03T11:38:47.686Z,58.80
2022-10-03T11:41:14.106Z,58.80
2022-10-03T11:43:40.544Z,58.10
2022-10-03T11:46:07.023Z,58.30
2022-10-03T11:48:33.497Z,58.50
2022-10-03T11:50:59.924Z,58.20
2022-10-03T11:53:26.385Z,58.10
2022-10-03T11:55:52.842Z,57.50
2022-10-03T11:58:19.263Z,57.40
2022-10-03T12:00:45.683Z,57.70
2022-10-03T12:03:12.154Z,57.80
2022-10-03T12:05:38.639Z,57.90
2022-10-03T12:08:05.073Z,57.80
2022-10-03T12:10:31.522Z,58.00
2022-10-03T12:12:57.953Z,58.20
2022-10-03T12:15:24.405Z,58.70
2022-10-03T12:17:50.839Z,58.70
2022-10-03T12:20:17.248Z,58.90
2022-10-03T12:22:43.668Z,58.80
2022-10-03T12:25:10.085Z,59.10
2022-10-03T12:27:36.518Z,59.00
2022-10-03T12:30:02.955Z,59.30
2022-10-03T12:32:29.393Z,59.60
2022-10-03T12:34:55.815Z,59.30
2022-10-03T12:37:22.248Z,59.60
2022-10-03T12:39:48.687Z,59.60
2022-10-03T12:42:15.139Z,59.70
2022-10-03T12:44:41.569Z,59.80
2022-10-03T12:47:08.010Z,60.00
2022-10-03T12:49:34.434Z,59.70
2022-10-03T12:52:00.854Z,60.00
2022-10-03T12:54:27.289Z,60.00
2022-10-03T12:56:53.726Z,59.40
2022-10-03T12:59:20.155Z,59.40
2022-10-03T13:01:46.633Z,59.30
2022-10-03T13:04:13.103Z,59.00
2022-10-03T13:07:02.192Z,59.00
2022-10-03T13:09:25.944Z,59.00
2022-10-03T13:11:52.382Z,59.30
2022-10-03T13:14:18.803Z,59.30
2022-10-03T13:16:45.218Z,59.50
2022-10-03T13:19:11.655Z,59.70
2022-10-03T13:21:46.475Z,59.70
2022-10-03T13:24:13.255Z,60.40
2022-10-03T13:26:39.678Z,59.60
2022-10-03T13:29:06.093Z,59.40
2022-10-03T13:31:32.597Z,59.10
2022-10-03T13:33:59.072Z,58.90
2022-10-03T13:36:25.501Z,58.60
2022-10-03T13:38:51.927Z,58.90
2022-10-03T13:41:18.363Z,59.10
2022-10-03T13:43:44.786Z,59.10
2022-10-03T13:46:11.251Z,59.10
2022-10-03T13:48:37.716Z,59.00
2022-10-03T13:51:04.154Z,59.10
2022-10-03T13:53:30.578Z,59.00
2022-10-03T13:55:58.408Z,59.00
2022-10-03T13:58:25.043Z,59.00
2022-10-03T14:00:51.472Z,59.20
2022-10-03T14:03:17.906Z,59.30
2022-10-03T14:05:44.321Z,60.00
2022-10-03T14:08:10.765Z,59.50
2022-10-03T14:10:37.168Z,59.60
2022-10-03T14:13:03.592Z,59.50
2022-10-03T14:15:30.079Z,59.50
2022-10-03T14:17:56.588Z,59.70
2022-10-03T14:20:23.043Z,59.90
2022-10-03T14:22:49.508Z,60.00
2022-10-03T14:25:15.942Z,60.00
2022-10-03T14:27:42.358Z,60.10
2022-10-03T14:30:08.784Z,60.30
2022-10-03T14:32:47.367Z,60.40
2022-10-03T14:35:14.697Z,60.50
2022-10-03T14:37:41.114Z,60.60
2022-10-03T14:40:07.558Z,60.60
2022-10-03T14:42:33.989Z,60.60
2022-10-03T14:45:00.416Z,60.60
2022-10-03T14:47:26.841Z,60.60
2022-10-03T14:49:58.706Z,60.50
2022-10-03T14:52:26.062Z,60.60
2022-10-03T14:54:52.509Z,60.60
2022-10-03T14:57:18.951Z,60.80
2022-10-03T14:59:45.371Z,60.80
2022-10-03T15:02:12.192Z,60.90
2022-10-03T15:04:40.251Z,61.00
2022-10-03T15:07:06.685Z,61.10
2022-10-03T15:09:33.095Z,61.20
2022-10-03T15:11:59.536Z,61.20
2022-10-03T15:14:25.958Z,61.30
2022-10-03T15:16:52.393Z,61.50
2022-10-03T15:19:18.834Z,61.50
2022-10-03T15:21:45.286Z,61.60
2022-10-03T15:24:11.721Z,61.70
2022-10-03T15:26:38.156Z,61.70
2022-10-03T15:29:04.583Z,62.40
2022-10-03T15:31:31.104Z,62.00
2022-10-03T15:33:57.559Z,62.00
2022-10-03T15:36:23.997Z,62.20
2022-10-03T15:38:50.400Z,62.20
2022-10-03T15:41:16.825Z,62.30
2022-10-03T15:43:43.274Z,62.40
2022-10-03T15:46:09.727Z,62.50
2022-10-03T15:48:36.196Z,62.60
2022-10-03T15:51:02.617Z,62.60
2022-10-03T15:53:36.675Z,62.70
2022-10-03T15:56:03.767Z,62.70
2022-10-03T15:58:30.208Z,62.90
2022-10-03T16:00:56.655Z,63.60
2022-10-03T16:03:23.094Z,63.00
2022-10-03T16:05:49.504Z,63.10
2022-10-03T16:08:15.938Z,63.20
2022-10-03T16:10:42.356Z,63.20
2022-10-03T16:13:08.789Z,63.30
2022-10-03T16:15:35.219Z,63.40
2022-10-03T16:18:01.675Z,63.60
2022-10-03T16:20:28.095Z,63.70
2022-10-03T16:22:54.519Z,63.80
2022-10-03T16:25:20.960Z,64.00
2022-10-03T16:27:47.397Z,64.10
2022-10-03T16:30:13.835Z,64.20
2022-10-03T16:32:40.263Z,64.40
2022-10-03T16:35:06.699Z,64.50
2022-10-03T16:37:33.113Z,64.60
2022-10-03T16:39:59.562Z,64.80
2022-10-03T16:42:25.987Z,64.90
2022-10-03T16:44:52.438Z,65.00
2022-10-03T16:47:18.865Z,65.10
2022-10-03T16:49:45.301Z,65.20
2022-10-03T16:52:11.732Z,65.40
2022-10-03T16:54:38.169Z,65.50
2022-10-03T16:57:04.605Z,65.70
2022-10-03T16:59:31.037Z,65.90
2022-10-03T17:01:57.551Z,66.00
2022-10-03T17:04:24.057Z,66.10
2022-10-03T17:06:50.493Z,66.20
2022-10-03T17:09:16.941Z,66.40
2022-10-03T17:11:43.596Z,66.60
2022-10-03T17:14:10.171Z,66.70
2022-10-03T17:16:36.645Z,66.80
2022-10-03T17:19:03.123Z,66.80
2022-10-03T17:21:29.568Z,67.00
2022-10-03T17:23:56.017Z,67.10
2022-10-03T17:26:22.439Z,67.20
2022-10-03T17:28:48.863Z,67.20
2022-10-03T17:31:15.327Z,68.00
2022-10-03T17:33:41.809Z,67.50
2022-10-03T17:36:08.219Z,67.50
2022-10-03T17:38:49.395Z,67.60
2022-10-03T17:41:16.593Z,67.70
2022-10-03T17:43:43.037Z,67.90
2022-10-03T17:46:09.508Z,68.00
2022-10-03T17:48:35.965Z,68.10
2022-10-03T17:51:02.387Z,68.10
2022-10-03T17:53:28.817Z,68.20
2022-10-03T17:55:55.245Z,68.40
2022-10-03T17:58:21.679Z,68.40
2022-10-03T18:00:48.139Z,68.60
2022-10-03T18:03:14.575Z,68.70
2022-10-03T18:05:41.019Z,68.70
2022-10-03T18:08:07.453Z,68.80
2022-10-03T18:10:33.875Z,68.90
2022-10-03T18:13:00.284Z,69.10
2022-10-03T18:15:26.713Z,69.20
2022-10-03T18:17:53.129Z,69.50
2022-10-03T18:20:19.546Z,69.80
2022-10-03T18:22:45.970Z,69.80
2022-10-03T18:25:12.386Z,69.90
2022-10-03T18:27:38.807Z,70.10
2022-10-03T18:30:05.218Z,70.20
2022-10-03T18:32:31.648Z,70.10
2022-10-03T18:34:58.081Z,70.10
2022-10-03T18:37:24.513Z,70.00
2022-10-03T18:39:54.406Z,70.00
2022-10-03T18:42:21.100Z,69.90
2022-10-03T18:44:47.538Z,69.90
2022-10-03T18:47:13.986Z,69.90
2022-10-03T18:49:40.422Z,70.00
2022-10-03T18:52:06.860Z,69.90
2022-10-03T18:54:33.306Z,69.90
2022-10-03T18:56:59.733Z,69.90
2022-10-03T18:59:26.151Z,69.90
2022-10-03T19:01:52.706Z,69.90
2022-10-03T19:04:19.225Z,69.90
2022-10-03T19:06:45.667Z,70.10
2022-10-03T19:09:12.099Z,70.20
2022-10-03T19:11:38.723Z,70.30
2022-10-03T19:14:05.283Z,70.30
2022-10-03T19:16:31.756Z,70.40
2022-10-03T19:18:58.257Z,70.40
2022-10-03T19:21:24.679Z,70.50
2022-10-03T19:23:51.109Z,70.50
2022-10-03T19:26:17.530Z,70.50
2022-10-03T19:28:43.955Z,70.60
2022-10-03T19:31:10.461Z,70.60
2022-10-03T19:33:36.936Z,70.70
2022-10-03T19:36:03.383Z,70.70
2022-10-03T19:38:29.819Z,70.80
2022-10-03T19:40:56.250Z,71.00
2022-10-03T19:43:22.672Z,70.90
2022-10-03T19:45:49.167Z,71.00
2022-10-03T19:48:15.613Z,71.10
2022-10-03T19:50:42.045Z,71.20
2022-10-03T19:53:08.460Z,71.30
2022-10-03T19:55:34.885Z,71.30
2022-10-03T19:58:01.356Z,71.40
2022-10-03T20:00:27.785Z,71.50
2022-10-03T20:02:54.229Z,71.50
2022-10-03T20:05:20.679Z,71.60
2022-10-03T20:07:47.118Z,71.70
2022-10-03T20:10:13.563Z,71.70
2022-10-03T20:12:43.563Z,71.70
2022-10-03T20:15:10.196Z,71.70
2022-10-03T20:17:36.618Z,71.70
2022-10-03T20:20:03.035Z,71.60
2022-10-03T20:22:29.471Z,71.60
2022-10-03T20:24:55.887Z,71.60
2022-10-03T20:27:22.331Z,71.60
2022-10-03T20:29:48.769Z,71.70
2022-10-03T20:32:15.286Z,71.70
2022-10-03T20:34:41.747Z,71.70
2022-10-03T20:37:08.169Z,71.80
2022-10-03T20:39:34.579Z,71.90
2022-10-03T20:42:01.040Z,72.00
2022-10-03T20:44:27.460Z,72.00
2022-10-03T20:46:53.885Z,72.00
2022-10-03T20:49:20.332Z,72.70
2022-10-03T20:51:46.777Z,72.10
2022-10-03T20:54:13.220Z,72.20
2022-10-03T20:56:39.645Z,72.30
2022-10-03T20:59:06.090Z,72.30
2022-10-03T21:01:32.575Z,72.30
2022-10-03T21:03:59.036Z,72.40
2022-10-03T21:06:25.474Z,72.50
2022-10-03T21:08:51.904Z,72.60
2022-10-03T21:11:18.329Z,72.70
2022-10-03T21:13:44.782Z,72.60
2022-10-03T21:16:11.288Z,72.70
2022-10-03T21:18:37.741Z,72.70
2022-10-03T21:21:04.156Z,72.70
2022-10-03T21:23:30.572Z,72.70
2022-10-03T21:25:57.000Z,72.80
2022-10-03T21:28:23.479Z,72.90
2022-10-03T21:30:49.982Z,73.00
2022-10-03T21:33:16.419Z,73.00
2022-10-03T21:35:42.849Z,73.10
2022-10-03T21:38:09.267Z,73.00
2022-10-03T21:40:35.745Z,73.00
2022-10-03T21:43:02.164Z,73.00
2022-10-03T21:45:28.597Z,73.00
2022-10-03T21:47:55.013Z,73.10
2022-10-03T21:50:21.469Z,73.00
2022-10-03T21:52:47.893Z,73.00
2022-10-03T21:55:14.322Z,73.10
2022-10-03T21:57:40.746Z,73.10
2022-10-03T22:00:07.188Z,73.20
2022-10-03T22:02:33.697Z,73.30
2022-10-03T22:05:00.166Z,73.30
2022-10-03T22:07:26.589Z,73.30
2022-10-03T22:09:53.025Z,73.30
2022-10-03T22:12:19.463Z,73.30
2022-10-03T22:14:45.886Z,73.30
2022-10-03T22:17:12.337Z,73.30
2022-10-03T22:19:38.774Z,73.30
2022-10-03T22:22:05.209Z,73.30
2022-10-03T22:24:31.659Z,73.30
2022-10-03T22:26:58.102Z,73.30
2022-10-03T22:29:24.537Z,73.40
2022-10-03T22:31:50.953Z,73.40
2022-10-03T22:34:17.394Z,73.40
2022-10-03T22:36:43.815Z,73.30
2022-10-03T22:39:10.254Z,73.40
2022-10-03T22:41:36.681Z,73.40
2022-10-03T22:44:03.120Z,73.40
2022-10-03T22:46:29.653Z,73.50
2022-10-03T22:48:56.118Z,73.50
2022-10-03T22:51:22.523Z,73.40
2022-10-03T22:53:48.961Z,73.50
2022-10-03T22:56:15.394Z,73.50
2022-10-03T22:58:41.829Z,73.50
2022-10-03T23:01:08.245Z,73.50
2022-10-03T23:03:34.721Z,73.50
2022-10-03T23:06:01.178Z,73.50
2022-10-03T23:08:27.625Z,73.60
2022-10-03T23:10:54.065Z,73.70
2022-10-03T23:13:20.488Z,73.70
2022-10-03T23:15:46.966Z,73.70
2022-10-03T23:18:13.396Z,73.80
2022-10-03T23:20:39.830Z,73.80
2022-10-03T23:23:06.255Z,73.90
2022-10-03T23:25:32.687Z,73.80
2022-10-03T23:27:59.143Z,73.90
2022-10-03T23:30:25.578Z,73.90
2022-10-03T23:32:52.002Z,74.20
2022-10-03T23:35:18.461Z,73.90
2022-10-03T23:37:44.934Z,74.00
2022-10-03T23:40:11.347Z,74.00
2022-10-03T23:42:37.773Z,74.00
2022-10-03T23:45:04.217Z,74.00
2022-10-03T23:47:30.660Z,74.00
2022-10-03T23:49:57.095Z,74.10
2022-10-03T23:52:23.526Z,74.10
2022-10-03T23:54:49.941Z,74.10
2022-10-03T23:57:16.390Z,74.80
2022-10-03T23:59:42.818Z,74.30
